Terminal Aerodrome Forecast
Issued by NWS Sterling, VA

Home | Current Version | Previous Version | Text Only | Print | Product List | Glossary On
Versions: 1 2 3 4 5 6 7 8 9 10 11 12 13 14 15 16 17 18 19 20 21 22 23 24 25 26
477
FTUS41 KLWX 232327
TAFMRB
TAF
KMRB 232327Z 2400/2424 02012G19KT 3SM -RASNPL OVC006
     FM240300 36011KT 2SM -RAPL OVC003
     FM240600 34010KT 2SM -SNRA OVC005
     FM241200 32011KT P6SM BKN015
     FM242100 31013G21KT P6SM BKN050
     FM242300 31012KT P6SM SCT050=

USA.gov is the U.S. government's official web portal to all federal, state and local government web resources and services.